sensor_id;sensor_type;location;lat;lon;timestamp;P1;durP1;ratioP1;P2;durP2;ratioP2
11006;SDS011;8186;57.652;11.968;2023-09-18T00:01:17;4.90;;;3.87;;
11006;SDS011;8186;57.652;11.968;2023-09-18T00:03:45;7.53;;;3.83;;
11006;SDS011;8186;57.652;11.968;2023-09-18T00:06:12;4.30;;;3.90;;
11006;SDS011;8186;57.652;11.968;2023-09-18T00:08:39;5.53;;;3.53;;
11006;SDS011;8186;57.652;11.968;2023-09-18T00:11:06;4.00;;;3.60;;
11006;SDS011;8186;57.652;11.968;2023-09-18T00:13:33;3.73;;;3.43;;
11006;SDS011;8186;57.652;11.968;2023-09-18T00:16:01;4.73;;;3.73;;
11006;SDS011;8186;57.652;11.968;2023-09-18T00:18:30;4.27;;;3.87;;
11006;SDS011;8186;57.652;11.968;2023-09-18T00:20:58;4.13;;;3.73;;
11006;SDS011;8186;57.652;11.968;2023-09-18T00:23:24;4.40;;;3.63;;
11006;SDS011;8186;57.652;11.968;2023-09-18T00:25:51;5.23;;;3.40;;
11006;SDS011;8186;57.652;11.968;2023-09-18T00:28:18;5.07;;;3.70;;
11006;SDS011;8186;57.652;11.968;2023-09-18T00:30:47;4.47;;;3.33;;
11006;SDS011;8186;57.652;11.968;2023-09-18T00:33:14;5.90;;;4.33;;
11006;SDS011;8186;57.652;11.968;2023-09-18T00:35:46;4.00;;;3.57;;
11006;SDS011;8186;57.652;11.968;2023-09-18T00:38:13;5.07;;;3.43;;
11006;SDS011;8186;57.652;11.968;2023-09-18T00:40:40;3.83;;;3.43;;
11006;SDS011;8186;57.652;11.968;2023-09-18T00:43:07;3.97;;;3.60;;
11006;SDS011;8186;57.652;11.968;2023-09-18T00:45:35;3.83;;;3.43;;
11006;SDS011;8186;57.652;11.968;2023-09-18T00:48:03;5.00;;;3.60;;
11006;SDS011;8186;57.652;11.968;2023-09-18T00:50:30;3.50;;;3.20;;
11006;SDS011;8186;57.652;11.968;2023-09-18T00:52:59;3.97;;;3.23;;
11006;SDS011;8186;57.652;11.968;2023-09-18T00:55:26;5.80;;;3.40;;
11006;SDS011;8186;57.652;11.968;2023-09-18T00:57:54;3.50;;;3.20;;
11006;SDS011;8186;57.652;11.968;2023-09-18T01:00:21;3.90;;;3.60;;
11006;SDS011;8186;57.652;11.968;2023-09-18T01:02:48;5.90;;;3.83;;
11006;SDS011;8186;57.652;11.968;2023-09-18T01:05:15;3.30;;;3.00;;
11006;SDS011;8186;57.652;11.968;2023-09-18T01:07:42;4.30;;;3.23;;
11006;SDS011;8186;57.652;11.968;2023-09-18T01:10:11;3.47;;;3.17;;
11006;SDS011;8186;57.652;11.968;2023-09-18T01:12:42;3.80;;;3.40;;
11006;SDS011;8186;57.652;11.968;2023-09-18T01:15:12;4.83;;;3.20;;
11006;SDS011;8186;57.652;11.968;2023-09-18T01:17:42;3.67;;;3.27;;
11006;SDS011;8186;57.652;11.968;2023-09-18T01:20:10;4.10;;;3.70;;
11006;SDS011;8186;57.652;11.968;2023-09-18T01:22:39;3.50;;;2.93;;
11006;SDS011;8186;57.652;11.968;2023-09-18T01:25:06;3.80;;;3.40;;
11006;SDS011;8186;57.652;11.968;2023-09-18T01:27:33;5.83;;;3.13;;
11006;SDS011;8186;57.652;11.968;2023-09-18T01:30:00;6.47;;;3.27;;
11006;SDS011;8186;57.652;11.968;2023-09-18T01:32:28;3.57;;;3.27;;
11006;SDS011;8186;57.652;11.968;2023-09-18T01:34:57;5.67;;;3.20;;
11006;SDS011;8186;57.652;11.968;2023-09-18T01:37:26;3.90;;;3.30;;
11006;SDS011;8186;57.652;11.968;2023-09-18T01:39:55;3.70;;;3.20;;
11006;SDS011;8186;57.652;11.968;2023-09-18T01:42:25;4.73;;;3.20;;
11006;SDS011;8186;57.652;11.968;2023-09-18T01:44:53;3.40;;;3.10;;
11006;SDS011;8186;57.652;11.968;2023-09-18T01:47:21;3.43;;;3.13;;
11006;SDS011;8186;57.652;11.968;2023-09-18T01:49:49;3.40;;;3.10;;
11006;SDS011;8186;57.652;11.968;2023-09-18T01:52:16;4.67;;;3.13;;
11006;SDS011;8186;57.652;11.968;2023-09-18T01:54:43;5.10;;;3.10;;
11006;SDS011;8186;57.652;11.968;2023-09-18T01:57:11;3.43;;;3.13;;
11006;SDS011;8186;57.652;11.968;2023-09-18T01:59:38;4.60;;;3.10;;
11006;SDS011;8186;57.652;11.968;2023-09-18T02:02:07;4.43;;;3.20;;
11006;SDS011;8186;57.652;11.968;2023-09-18T02:04:35;4.67;;;3.03;;
11006;SDS011;8186;57.652;11.968;2023-09-18T02:07:02;4.00;;;3.30;;
11006;SDS011;8186;57.652;11.968;2023-09-18T02:09:29;3.60;;;3.30;;
11006;SDS011;8186;57.652;11.968;2023-09-18T02:11:56;4.43;;;3.40;;
11006;SDS011;8186;57.652;11.968;2023-09-18T02:14:24;5.23;;;3.40;;
11006;SDS011;8186;57.652;11.968;2023-09-18T02:16:51;3.60;;;3.20;;
11006;SDS011;8186;57.652;11.968;2023-09-18T02:19:19;5.50;;;2.80;;
11006;SDS011;8186;57.652;11.968;2023-09-18T02:21:46;4.50;;;3.20;;
11006;SDS011;8186;57.652;11.968;2023-09-18T02:24:13;5.27;;;3.30;;
11006;SDS011;8186;57.652;11.968;2023-09-18T02:26:39;3.07;;;2.80;;
11006;SDS011;8186;57.652;11.968;2023-09-18T02:29:07;3.10;;;2.80;;
11006;SDS011;8186;57.652;11.968;2023-09-18T02:31:38;5.17;;;3.10;;
11006;SDS011;8186;57.652;11.968;2023-09-18T02:34:04;3.57;;;3.17;;
11006;SDS011;8186;57.652;11.968;2023-09-18T02:36:32;4.07;;;3.00;;
11006;SDS011;8186;57.652;11.968;2023-09-18T02:38:59;3.80;;;2.93;;
11006;SDS011;8186;57.652;11.968;2023-09-18T02:41:26;3.33;;;2.87;;
11006;SDS011;8186;57.652;11.968;2023-09-18T02:43:53;3.77;;;2.80;;
11006;SDS011;8186;57.652;11.968;2023-09-18T02:46:20;3.17;;;2.93;;
11006;SDS011;8186;57.652;11.968;2023-09-18T02:48:49;3.27;;;3.00;;
11006;SDS011;8186;57.652;11.968;2023-09-18T02:51:17;3.83;;;3.13;;
11006;SDS011;8186;57.652;11.968;2023-09-18T02:53:44;3.30;;;3.00;;
11006;SDS011;8186;57.652;11.968;2023-09-18T02:56:11;2.80;;;2.60;;
11006;SDS011;8186;57.652;11.968;2023-09-18T02:58:38;3.30;;;3.00;;
11006;SDS011;8186;57.652;11.968;2023-09-18T03:01:06;4.40;;;2.67;;
11006;SDS011;8186;57.652;11.968;2023-09-18T03:03:33;4.27;;;3.27;;
11006;SDS011;8186;57.652;11.968;2023-09-18T03:06:01;4.27;;;3.10;;
11006;SDS011;8186;57.652;11.968;2023-09-18T03:08:29;3.97;;;3.07;;
11006;SDS011;8186;57.652;11.968;2023-09-18T03:10:56;3.07;;;2.67;;
11006;SDS011;8186;57.652;11.968;2023-09-18T03:13:23;5.17;;;2.83;;
11006;SDS011;8186;57.652;11.968;2023-09-18T03:15:50;6.07;;;3.23;;
11006;SDS011;8186;57.652;11.968;2023-09-18T03:18:17;3.20;;;2.83;;
11006;SDS011;8186;57.652;11.968;2023-09-18T03:20:46;3.53;;;2.40;;
11006;SDS011;8186;57.652;11.968;2023-09-18T03:23:14;5.37;;;3.10;;
11006;SDS011;8186;57.652;11.968;2023-09-18T03:25:42;3.40;;;2.80;;
11006;SDS011;8186;57.652;11.968;2023-09-18T03:28:09;3.37;;;2.90;;
11006;SDS011;8186;57.652;11.968;2023-09-18T03:30:36;3.77;;;3.03;;
11006;SDS011;8186;57.652;11.968;2023-09-18T03:33:03;4.30;;;2.77;;
11006;SDS011;8186;57.652;11.968;2023-09-18T03:35:31;3.47;;;2.80;;
11006;SDS011;8186;57.652;11.968;2023-09-18T03:37:58;3.93;;;2.70;;
11006;SDS011;8186;57.652;11.968;2023-09-18T03:40:26;4.40;;;2.70;;
11006;SDS011;8186;57.652;11.968;2023-09-18T03:42:53;4.50;;;2.90;;
11006;SDS011;8186;57.652;11.968;2023-09-18T03:45:20;3.60;;;2.90;;
11006;SDS011;8186;57.652;11.968;2023-09-18T03:47:47;4.70;;;2.70;;
11006;SDS011;8186;57.652;11.968;2023-09-18T03:50:15;4.60;;;2.90;;
11006;SDS011;8186;57.652;11.968;2023-09-18T03:52:42;4.53;;;2.70;;
11006;SDS011;8186;57.652;11.968;2023-09-18T03:55:09;4.03;;;2.70;;
11006;SDS011;8186;57.652;11.968;2023-09-18T03:57:38;4.67;;;3.10;;
11006;SDS011;8186;57.652;11.968;2023-09-18T04:00:06;3.17;;;2.87;;
11006;SDS011;8186;57.652;11.968;2023-09-18T04:02:33;4.10;;;2.90;;
11006;SDS011;8186;57.652;11.968;2023-09-18T04:05:00;3.57;;;2.73;;
11006;SDS011;8186;57.652;11.968;2023-09-18T04:07:28;3.43;;;3.03;;
11006;SDS011;8186;57.652;11.968;2023-09-18T04:09:56;3.37;;;3.00;;
11006;SDS011;8186;57.652;11.968;2023-09-18T04:12:23;4.43;;;2.73;;
11006;SDS011;8186;57.652;11.968;2023-09-18T04:14:52;5.67;;;2.80;;
11006;SDS011;8186;57.652;11.968;2023-09-18T04:17:19;5.10;;;2.87;;
11006;SDS011;8186;57.652;11.968;2023-09-18T04:19:46;3.57;;;2.60;;
11006;SDS011;8186;57.652;11.968;2023-09-18T04:22:13;3.50;;;2.70;;
11006;SDS011;8186;57.652;11.968;2023-09-18T04:24:40;2.90;;;2.60;;
11006;SDS011;8186;57.652;11.968;2023-09-18T04:27:07;3.50;;;2.87;;
11006;SDS011;8186;57.652;11.968;2023-09-18T04:29:35;2.60;;;2.40;;
11006;SDS011;8186;57.652;11.968;2023-09-18T04:32:04;3.80;;;2.80;;
11006;SDS011;8186;57.652;11.968;2023-09-18T04:34:31;4.47;;;2.70;;
11006;SDS011;8186;57.652;11.968;2023-09-18T04:37:00;4.23;;;2.47;;
11006;SDS011;8186;57.652;11.968;2023-09-18T04:39:27;3.20;;;2.60;;
11006;SDS011;8186;57.652;11.968;2023-09-18T04:41:55;4.30;;;2.53;;
11006;SDS011;8186;57.652;11.968;2023-09-18T04:44:22;3.50;;;2.50;;
11006;SDS011;8186;57.652;11.968;2023-09-18T04:46:49;3.57;;;2.40;;
11006;SDS011;8186;57.652;11.968;2023-09-18T04:49:17;5.90;;;2.50;;
11006;SDS011;8186;57.652;11.968;2023-09-18T04:51:44;3.37;;;2.13;;
11006;SDS011;8186;57.652;11.968;2023-09-18T04:54:11;3.30;;;2.50;;
11006;SDS011;8186;57.652;11.968;2023-09-18T04:56:38;4.97;;;2.60;;
11006;SDS011;8186;57.652;11.968;2023-09-18T04:59:05;4.23;;;2.70;;
11006;SDS011;8186;57.652;11.968;2023-09-18T05:01:32;4.60;;;2.60;;
11006;SDS011;8186;57.652;11.968;2023-09-18T05:03:58;4.07;;;2.93;;
11006;SDS011;8186;57.652;11.968;2023-09-18T05:06:27;3.63;;;2.90;;
11006;SDS011;8186;57.652;11.968;2023-09-18T05:08:54;4.40;;;2.27;;
11006;SDS011;8186;57.652;11.968;2023-09-18T05:11:21;2.70;;;2.37;;
11006;SDS011;8186;57.652;11.968;2023-09-18T05:13:47;3.40;;;2.57;;
11006;SDS011;8186;57.652;11.968;2023-09-18T05:16:14;6.93;;;2.80;;
11006;SDS011;8186;57.652;11.968;2023-09-18T05:18:41;3.17;;;2.50;;
11006;SDS011;8186;57.652;11.968;2023-09-18T05:21:08;3.23;;;2.60;;
11006;SDS011;8186;57.652;11.968;2023-09-18T05:23:37;5.07;;;2.70;;
11006;SDS011;8186;57.652;11.968;2023-09-18T05:26:04;4.43;;;2.43;;
11006;SDS011;8186;57.652;11.968;2023-09-18T05:28:31;3.00;;;2.60;;
11006;SDS011;8186;57.652;11.968;2023-09-18T05:30:58;3.33;;;2.20;;
11006;SDS011;8186;57.652;11.968;2023-09-18T05:33:25;4.63;;;2.40;;
11006;SDS011;8186;57.652;11.968;2023-09-18T05:35:52;3.67;;;2.17;;
11006;SDS011;8186;57.652;11.968;2023-09-18T05:38:19;5.70;;;2.50;;
11006;SDS011;8186;57.652;11.968;2023-09-18T05:40:47;4.80;;;2.63;;
11006;SDS011;8186;57.652;11.968;2023-09-18T05:43:14;3.63;;;2.53;;
11006;SDS011;8186;57.652;11.968;2023-09-18T05:45:41;5.37;;;3.03;;
11006;SDS011;8186;57.652;11.968;2023-09-18T05:48:08;3.70;;;2.33;;
11006;SDS011;8186;57.652;11.968;2023-09-18T05:50:35;2.97;;;2.23;;
11006;SDS011;8186;57.652;11.968;2023-09-18T05:53:02;4.67;;;2.53;;
11006;SDS011;8186;57.652;11.968;2023-09-18T05:55:30;4.40;;;2.47;;
11006;SDS011;8186;57.652;11.968;2023-09-18T05:57:59;3.97;;;2.50;;
11006;SDS011;8186;57.652;11.968;2023-09-18T06:00:26;3.70;;;2.40;;
11006;SDS011;8186;57.652;11.968;2023-09-18T06:02:55;5.37;;;2.43;;
11006;SDS011;8186;57.652;11.968;2023-09-18T06:05:24;5.33;;;2.80;;
11006;SDS011;8186;57.652;11.968;2023-09-18T06:07:51;3.33;;;2.70;;
11006;SDS011;8186;57.652;11.968;2023-09-18T06:10:18;5.93;;;2.40;;
11006;SDS011;8186;57.652;11.968;2023-09-18T06:12:45;3.27;;;2.33;;
11006;SDS011;8186;57.652;11.968;2023-09-18T06:15:13;3.37;;;2.33;;
11006;SDS011;8186;57.652;11.968;2023-09-18T06:17:41;5.00;;;3.00;;
11006;SDS011;8186;57.652;11.968;2023-09-18T06:20:09;5.90;;;2.60;;
11006;SDS011;8186;57.652;11.968;2023-09-18T06:22:38;5.47;;;2.70;;
11006;SDS011;8186;57.652;11.968;2023-09-18T06:25:05;3.10;;;2.50;;
11006;SDS011;8186;57.652;11.968;2023-09-18T06:27:33;8.57;;;2.57;;
11006;SDS011;8186;57.652;11.968;2023-09-18T06:30:02;2.60;;;2.17;;
11006;SDS011;8186;57.652;11.968;2023-09-18T06:32:30;2.63;;;2.20;;
11006;SDS011;8186;57.652;11.968;2023-09-18T06:34:57;2.47;;;2.00;;
11006;SDS011;8186;57.652;11.968;2023-09-18T06:37:24;3.23;;;2.70;;
11006;SDS011;8186;57.652;11.968;2023-09-18T06:39:51;3.10;;;2.60;;
11006;SDS011;8186;57.652;11.968;2023-09-18T06:42:18;3.93;;;2.17;;
11006;SDS011;8186;57.652;11.968;2023-09-18T06:44:47;3.90;;;2.97;;
11006;SDS011;8186;57.652;11.968;2023-09-18T06:47:14;3.87;;;2.67;;
11006;SDS011;8186;57.652;11.968;2023-09-18T06:49:42;3.40;;;2.43;;
11006;SDS011;8186;57.652;11.968;2023-09-18T06:52:09;5.20;;;2.67;;
11006;SDS011;8186;57.652;11.968;2023-09-18T06:54:38;3.80;;;2.53;;
11006;SDS011;8186;57.652;11.968;2023-09-18T06:57:06;3.33;;;2.40;;
11006;SDS011;8186;57.652;11.968;2023-09-18T06:59:32;2.50;;;1.80;;
11006;SDS011;8186;57.652;11.968;2023-09-18T07:02:00;6.05;;;2.75;;
11006;SDS011;8186;57.652;11.968;2023-09-18T07:04:27;4.53;;;2.63;;
11006;SDS011;8186;57.652;11.968;2023-09-18T07:06:55;3.30;;;2.43;;
11006;SDS011;8186;57.652;11.968;2023-09-18T07:09:22;4.50;;;2.30;;
11006;SDS011;8186;57.652;11.968;2023-09-18T07:11:51;4.37;;;2.40;;
11006;SDS011;8186;57.652;11.968;2023-09-18T07:14:18;3.70;;;2.47;;
11006;SDS011;8186;57.652;11.968;2023-09-18T07:16:45;3.60;;;1.83;;
11006;SDS011;8186;57.652;11.968;2023-09-18T07:19:12;3.07;;;2.10;;
11006;SDS011;8186;57.652;11.968;2023-09-18T07:21:42;3.60;;;2.27;;
11006;SDS011;8186;57.652;11.968;2023-09-18T07:24:11;3.63;;;2.10;;
11006;SDS011;8186;57.652;11.968;2023-09-18T07:26:44;4.47;;;2.40;;
11006;SDS011;8186;57.652;11.968;2023-09-18T07:29:12;2.90;;;1.87;;
11006;SDS011;8186;57.652;11.968;2023-09-18T07:31:40;5.33;;;2.13;;
11006;SDS011;8186;57.652;11.968;2023-09-18T07:34:07;2.50;;;2.10;;
11006;SDS011;8186;57.652;11.968;2023-09-18T07:36:35;4.13;;;2.33;;
11006;SDS011;8186;57.652;11.968;2023-09-18T07:39:02;3.27;;;2.10;;
11006;SDS011;8186;57.652;11.968;2023-09-18T07:41:31;3.03;;;2.17;;
11006;SDS011;8186;57.652;11.968;2023-09-18T07:43:58;3.33;;;1.93;;
11006;SDS011;8186;57.652;11.968;2023-09-18T07:46:25;3.33;;;2.00;;
11006;SDS011;8186;57.652;11.968;2023-09-18T07:48:52;5.00;;;2.40;;
11006;SDS011;8186;57.652;11.968;2023-09-18T07:51:19;4.10;;;2.13;;
11006;SDS011;8186;57.652;11.968;2023-09-18T07:53:46;4.23;;;2.30;;
11006;SDS011;8186;57.652;11.968;2023-09-18T07:56:13;3.97;;;2.00;;
11006;SDS011;8186;57.652;11.968;2023-09-18T07:58:41;5.13;;;2.20;;
11006;SDS011;8186;57.652;11.968;2023-09-18T08:01:08;3.63;;;2.13;;
11006;SDS011;8186;57.652;11.968;2023-09-18T08:03:35;2.47;;;2.20;;
11006;SDS011;8186;57.652;11.968;2023-09-18T08:06:02;6.33;;;2.27;;
11006;SDS011;8186;57.652;11.968;2023-09-18T08:08:31;3.23;;;2.07;;
11006;SDS011;8186;57.652;11.968;2023-09-18T08:11:00;3.07;;;2.10;;
11006;SDS011;8186;57.652;11.968;2023-09-18T08:13:30;3.20;;;2.03;;
11006;SDS011;8186;57.652;11.968;2023-09-18T08:15:59;5.83;;;2.40;;
11006;SDS011;8186;57.652;11.968;2023-09-18T08:18:26;2.87;;;2.20;;
11006;SDS011;8186;57.652;11.968;2023-09-18T08:20:54;3.70;;;2.08;;
11006;SDS011;8186;57.652;11.968;2023-09-18T08:23:23;4.77;;;2.33;;
11006;SDS011;8186;57.652;11.968;2023-09-18T08:25:50;3.10;;;2.13;;
11006;SDS011;8186;57.652;11.968;2023-09-18T08:28:20;4.27;;;2.47;;
11006;SDS011;8186;57.652;11.968;2023-09-18T08:30:47;4.87;;;2.30;;
11006;SDS011;8186;57.652;11.968;2023-09-18T08:33:16;3.33;;;2.20;;
11006;SDS011;8186;57.652;11.968;2023-09-18T08:35:43;4.87;;;2.33;;
11006;SDS011;8186;57.652;11.968;2023-09-18T08:38:12;3.37;;;2.47;;
11006;SDS011;8186;57.652;11.968;2023-09-18T08:40:40;3.60;;;2.47;;
11006;SDS011;8186;57.652;11.968;2023-09-18T08:43:07;3.13;;;2.33;;
11006;SDS011;8186;57.652;11.968;2023-09-18T08:45:35;4.80;;;2.40;;
11006;SDS011;8186;57.652;11.968;2023-09-18T08:48:04;3.13;;;2.50;;
11006;SDS011;8186;57.652;11.968;2023-09-18T08:50:34;2.43;;;2.23;;
11006;SDS011;8186;57.652;11.968;2023-09-18T08:53:01;3.33;;;2.50;;
11006;SDS011;8186;57.652;11.968;2023-09-18T08:55:28;2.87;;;2.67;;
11006;SDS011;8186;57.652;11.968;2023-09-18T08:57:55;2.50;;;2.30;;
11006;SDS011;8186;57.652;11.968;2023-09-18T09:00:24;4.23;;;2.30;;
11006;SDS011;8186;57.652;11.968;2023-09-18T09:02:51;6.20;;;2.70;;
11006;SDS011;8186;57.652;11.968;2023-09-18T09:05:19;3.43;;;2.70;;
11006;SDS011;8186;57.652;11.968;2023-09-18T09:07:48;5.77;;;3.03;;
11006;SDS011;8186;57.652;11.968;2023-09-18T09:10:15;4.20;;;2.83;;
11006;SDS011;8186;57.652;11.968;2023-09-18T09:12:49;5.60;;;3.27;;
11006;SDS011;8186;57.652;11.968;2023-09-18T09:15:19;4.27;;;3.60;;
11006;SDS011;8186;57.652;11.968;2023-09-18T09:17:46;3.83;;;3.30;;
11006;SDS011;8186;57.652;11.968;2023-09-18T09:20:13;4.23;;;3.50;;
11006;SDS011;8186;57.652;11.968;2023-09-18T09:22:41;4.57;;;3.90;;
11006;SDS011;8186;57.652;11.968;2023-09-18T09:25:25;4.00;;;3.60;;
11006;SDS011;8186;57.652;11.968;2023-09-18T09:27:53;3.97;;;3.33;;
11006;SDS011;8186;57.652;11.968;2023-09-18T09:30:21;6.20;;;3.80;;
11006;SDS011;8186;57.652;11.968;2023-09-18T09:32:49;4.87;;;3.83;;
11006;SDS011;8186;57.652;11.968;2023-09-18T09:35:23;5.17;;;3.63;;
11006;SDS011;8186;57.652;11.968;2023-09-18T09:37:52;6.40;;;3.70;;
11006;SDS011;8186;57.652;11.968;2023-09-18T09:40:22;4.73;;;4.20;;
11006;SDS011;8186;57.652;11.968;2023-09-18T09:42:52;4.43;;;3.90;;
11006;SDS011;8186;57.652;11.968;2023-09-18T09:45:25;4.67;;;4.00;;
11006;SDS011;8186;57.652;11.968;2023-09-18T09:47:54;4.87;;;3.87;;
11006;SDS011;8186;57.652;11.968;2023-09-18T09:50:21;9.03;;;4.30;;
11006;SDS011;8186;57.652;11.968;2023-09-18T09:52:51;6.00;;;4.37;;
11006;SDS011;8186;57.652;11.968;2023-09-18T09:55:20;5.27;;;4.13;;
11006;SDS011;8186;57.652;11.968;2023-09-18T09:57:49;7.57;;;4.47;;
11006;SDS011;8186;57.652;11.968;2023-09-18T10:00:22;7.60;;;4.53;;
11006;SDS011;8186;57.652;11.968;2023-09-18T10:02:56;4.60;;;4.20;;
11006;SDS011;8186;57.652;11.968;2023-09-18T10:05:24;8.77;;;4.83;;
11006;SDS011;8186;57.652;11.968;2023-09-18T10:07:56;4.97;;;4.20;;
11006;SDS011;8186;57.652;11.968;2023-09-18T10:10:26;5.10;;;4.60;;
11006;SDS011;8186;57.652;11.968;2023-09-18T10:12:58;5.97;;;4.77;;
11006;SDS011;8186;57.652;11.968;2023-09-18T10:15:27;5.10;;;4.60;;
11006;SDS011;8186;57.652;11.968;2023-09-18T10:17:56;5.13;;;4.63;;
11006;SDS011;8186;57.652;11.968;2023-09-18T10:20:24;5.63;;;4.80;;
11006;SDS011;8186;57.652;11.968;2023-09-18T10:22:52;5.83;;;5.00;;
11006;SDS011;8186;57.652;11.968;2023-09-18T10:25:21;5.13;;;4.63;;
11006;SDS011;8186;57.652;11.968;2023-09-18T10:27:50;6.40;;;4.63;;
11006;SDS011;8186;57.652;11.968;2023-09-18T10:30:20;5.83;;;5.13;;
11006;SDS011;8186;57.652;11.968;2023-09-18T10:32:48;5.03;;;4.53;;
11006;SDS011;8186;57.652;11.968;2023-09-18T10:35:17;5.23;;;4.73;;
11006;SDS011;8186;57.652;11.968;2023-09-18T10:37:45;4.83;;;4.43;;
11006;SDS011;8186;57.652;11.968;2023-09-18T10:40:12;6.00;;;5.27;;
11006;SDS011;8186;57.652;11.968;2023-09-18T10:42:39;6.23;;;5.00;;
11006;SDS011;8186;57.652;11.968;2023-09-18T10:45:07;8.13;;;5.00;;
11006;SDS011;8186;57.652;11.968;2023-09-18T10:47:37;5.47;;;4.97;;
11006;SDS011;8186;57.652;11.968;2023-09-18T10:50:05;6.17;;;4.60;;
11006;SDS011;8186;57.652;11.968;2023-09-18T10:52:33;8.13;;;5.43;;
11006;SDS011;8186;57.652;11.968;2023-09-18T10:55:01;7.70;;;5.43;;
11006;SDS011;8186;57.652;11.968;2023-09-18T10:57:32;8.30;;;5.20;;
11006;SDS011;8186;57.652;11.968;2023-09-18T10:59:59;5.37;;;4.87;;
11006;SDS011;8186;57.652;11.968;2023-09-18T11:02:27;5.97;;;5.33;;
11006;SDS011;8186;57.652;11.968;2023-09-18T11:04:56;5.15;;;4.65;;
11006;SDS011;8186;57.652;11.968;2023-09-18T11:07:23;8.70;;;5.43;;
11006;SDS011;8186;57.652;11.968;2023-09-18T11:09:50;5.28;;;4.78;;
11006;SDS011;8186;57.652;11.968;2023-09-18T11:12:17;5.32;;;4.82;;
11006;SDS011;8186;57.652;11.968;2023-09-18T11:14:45;5.18;;;4.53;;
11006;SDS011;8186;57.652;11.968;2023-09-18T11:17:30;5.63;;;5.13;;
11006;SDS011;8186;57.652;11.968;2023-09-18T11:20:03;4.97;;;4.57;;
11006;SDS011;8186;57.652;11.968;2023-09-18T11:22:38;5.88;;;5.30;;
11006;SDS011;8186;57.652;11.968;2023-09-18T11:27:56;8.32;;;5.05;;
11006;SDS011;8186;57.652;11.968;2023-09-18T11:30:23;7.82;;;5.47;;
11006;SDS011;8186;57.652;11.968;2023-09-18T11:32:51;10.00;;;5.47;;
11006;SDS011;8186;57.652;11.968;2023-09-18T11:35:20;8.38;;;5.60;;
11006;SDS011;8186;57.652;11.968;2023-09-18T11:37:48;8.50;;;6.10;;
11006;SDS011;8186;57.652;11.968;2023-09-18T11:40:31;5.85;;;5.28;;
11006;SDS011;8186;57.652;11.968;2023-09-18T11:43:22;6.15;;;5.47;;
11006;SDS011;8186;57.652;11.968;2023-09-18T11:45:50;6.88;;;5.50;;
11006;SDS011;8186;57.652;11.968;2023-09-18T11:48:19;5.70;;;5.20;;
11006;SDS011;8186;57.652;11.968;2023-09-18T11:50:48;10.18;;;5.18;;
11006;SDS011;8186;57.652;11.968;2023-09-18T11:53:16;6.18;;;5.57;;
11006;SDS011;8186;57.652;11.968;2023-09-18T11:55:44;7.25;;;6.35;;
11006;SDS011;8186;57.652;11.968;2023-09-18T11:58:11;7.35;;;5.75;;
11006;SDS011;8186;57.652;11.968;2023-09-18T12:00:39;6.57;;;5.97;;
11006;SDS011;8186;57.652;11.968;2023-09-18T12:03:19;7.07;;;6.03;;
11006;SDS011;8186;57.652;11.968;2023-09-18T12:05:53;7.22;;;5.90;;
11006;SDS011;8186;57.652;11.968;2023-09-18T12:08:22;6.63;;;6.03;;
11006;SDS011;8186;57.652;11.968;2023-09-18T12:10:51;7.15;;;6.40;;
11006;SDS011;8186;57.652;11.968;2023-09-18T12:13:18;7.35;;;6.40;;
11006;SDS011;8186;57.652;11.968;2023-09-18T12:15:46;6.75;;;5.97;;
11006;SDS011;8186;57.652;11.968;2023-09-18T12:18:14;6.38;;;5.72;;
11006;SDS011;8186;57.652;11.968;2023-09-18T12:20:47;7.45;;;6.40;;
11006;SDS011;8186;57.652;11.968;2023-09-18T12:23:16;7.50;;;6.40;;
11006;SDS011;8186;57.652;11.968;2023-09-18T12:25:45;7.78;;;7.03;;
11006;SDS011;8186;57.652;11.968;2023-09-18T12:28:13;8.52;;;6.93;;
11006;SDS011;8186;57.652;11.968;2023-09-18T12:30:41;8.35;;;7.47;;
11006;SDS011;8186;57.652;11.968;2023-09-18T12:33:08;9.70;;;7.43;;
11006;SDS011;8186;57.652;11.968;2023-09-18T12:35:35;7.57;;;6.72;;
11006;SDS011;8186;57.652;11.968;2023-09-18T12:38:03;7.97;;;7.18;;
11006;SDS011;8186;57.652;11.968;2023-09-18T12:40:41;7.20;;;6.60;;
11006;SDS011;8186;57.652;11.968;2023-09-18T12:43:09;8.70;;;7.53;;
11006;SDS011;8186;57.652;11.968;2023-09-18T12:45:36;7.90;;;7.10;;
11006;SDS011;8186;57.652;11.968;2023-09-18T12:48:05;9.27;;;7.70;;
11006;SDS011;8186;57.652;11.968;2023-09-18T12:50:32;8.93;;;7.35;;
11006;SDS011;8186;57.652;11.968;2023-09-18T12:53:06;9.57;;;7.85;;
11006;SDS011;8186;57.652;11.968;2023-09-18T12:55:34;8.77;;;7.47;;
11006;SDS011;8186;57.652;11.968;2023-09-18T12:58:03;11.30;;;7.80;;
11006;SDS011;8186;57.652;11.968;2023-09-18T13:00:33;8.25;;;7.45;;
11006;SDS011;8186;57.652;11.968;2023-09-18T13:03:00;8.18;;;7.45;;
11006;SDS011;8186;57.652;11.968;2023-09-18T13:05:30;8.13;;;7.38;;
11006;SDS011;8186;57.652;11.968;2023-09-18T13:08:01;8.68;;;7.85;;
11006;SDS011;8186;57.652;11.968;2023-09-18T13:10:40;8.45;;;7.65;;
11006;SDS011;8186;57.652;11.968;2023-09-18T13:13:12;8.68;;;7.97;;
11006;SDS011;8186;57.652;11.968;2023-09-18T13:15:42;10.52;;;8.20;;
11006;SDS011;8186;57.652;11.968;2023-09-18T13:18:11;8.77;;;7.90;;
11006;SDS011;8186;57.652;11.968;2023-09-18T13:20:38;10.43;;;8.52;;
11006;SDS011;8186;57.652;11.968;2023-09-18T13:23:06;9.32;;;8.07;;
11006;SDS011;8186;57.652;11.968;2023-09-18T13:25:33;9.65;;;8.13;;
11006;SDS011;8186;57.652;11.968;2023-09-18T13:28:02;9.35;;;8.10;;
11006;SDS011;8186;57.652;11.968;2023-09-18T13:30:31;9.07;;;8.23;;
11006;SDS011;8186;57.652;11.968;2023-09-18T13:33:02;9.45;;;8.55;;
11006;SDS011;8186;57.652;11.968;2023-09-18T13:35:31;9.05;;;8.18;;
11006;SDS011;8186;57.652;11.968;2023-09-18T13:37:58;8.95;;;7.60;;
11006;SDS011;8186;57.652;11.968;2023-09-18T13:40:25;9.25;;;8.35;;
11006;SDS011;8186;57.652;11.968;2023-09-18T13:42:53;9.15;;;8.32;;
11006;SDS011;8186;57.652;11.968;2023-09-18T13:45:19;8.82;;;7.93;;
11006;SDS011;8186;57.652;11.968;2023-09-18T13:47:48;9.50;;;8.43;;
11006;SDS011;8186;57.652;11.968;2023-09-18T13:50:15;10.07;;;9.05;;
11006;SDS011;8186;57.652;11.968;2023-09-18T13:52:42;9.70;;;8.70;;
11006;SDS011;8186;57.652;11.968;2023-09-18T13:55:09;9.00;;;8.10;;
11006;SDS011;8186;57.652;11.968;2023-09-18T13:57:36;11.18;;;8.23;;
11006;SDS011;8186;57.652;11.968;2023-09-18T14:00:06;9.32;;;8.38;;
11006;SDS011;8186;57.652;11.968;2023-09-18T14:02:35;9.43;;;8.15;;
11006;SDS011;8186;57.652;11.968;2023-09-18T14:05:04;9.30;;;7.82;;
11006;SDS011;8186;57.652;11.968;2023-09-18T14:07:32;8.88;;;8.07;;
11006;SDS011;8186;57.652;11.968;2023-09-18T14:09:59;9.15;;;8.05;;
11006;SDS011;8186;57.652;11.968;2023-09-18T14:12:29;9.55;;;8.55;;
11006;SDS011;8186;57.652;11.968;2023-09-18T14:14:57;9.00;;;8.05;;
11006;SDS011;8186;57.652;11.968;2023-09-18T14:17:25;9.60;;;8.60;;
11006;SDS011;8186;57.652;11.968;2023-09-18T14:19:51;9.20;;;8.23;;
11006;SDS011;8186;57.652;11.968;2023-09-18T14:22:20;9.02;;;7.70;;
11006;SDS011;8186;57.652;11.968;2023-09-18T14:24:47;9.95;;;8.23;;
11006;SDS011;8186;57.652;11.968;2023-09-18T14:27:14;9.13;;;8.23;;
11006;SDS011;8186;57.652;11.968;2023-09-18T14:29:41;9.57;;;8.32;;
11006;SDS011;8186;57.652;11.968;2023-09-18T14:32:08;8.80;;;8.00;;
11006;SDS011;8186;57.652;11.968;2023-09-18T14:34:34;9.63;;;7.93;;
11006;SDS011;8186;57.652;11.968;2023-09-18T14:37:01;9.18;;;8.27;;
11006;SDS011;8186;57.652;11.968;2023-09-18T14:39:31;8.90;;;8.00;;
11006;SDS011;8186;57.652;11.968;2023-09-18T14:41:58;10.38;;;7.90;;
11006;SDS011;8186;57.652;11.968;2023-09-18T14:44:25;9.32;;;8.43;;
11006;SDS011;8186;57.652;11.968;2023-09-18T14:46:52;8.65;;;7.65;;
11006;SDS011;8186;57.652;11.968;2023-09-18T14:49:20;8.90;;;8.00;;
11006;SDS011;8186;57.652;11.968;2023-09-18T14:51:47;8.50;;;7.68;;
11006;SDS011;8186;57.652;11.968;2023-09-18T14:54:14;8.50;;;7.60;;
11006;SDS011;8186;57.652;11.968;2023-09-18T14:56:42;10.00;;;7.93;;